createdAt,value
2023-05-08T00:00:05.005Z,3.25
2023-05-08T00:00:16.547Z,3.05
2023-05-08T00:00:27.962Z,3.10
2023-05-08T00:00:39.378Z,3.15
2023-05-08T00:00:56.208Z,3.00
2023-05-08T00:01:07.961Z,2.80
2023-05-08T00:01:19.396Z,2.97
2023-05-08T00:01:30.962Z,2.75
2023-05-08T00:01:42.431Z,2.83
2023-05-08T00:01:53.800Z,3.08
2023-05-08T00:02:05.328Z,3.20
2023-05-08T00:02:16.791Z,3.08
2023-05-08T00:02:28.293Z,3.25
2023-05-08T00:02:41.033Z,3.47
2023-05-08T00:02:52.629Z,3.28
2023-05-08T00:03:07.132Z,3.15
2023-05-08T00:03:18.627Z,3.40
2023-05-08T00:03:30.434Z,3.40
2023-05-08T00:03:42.453Z,3.00
2023-05-08T00:03:54.239Z,3.00
2023-05-08T00:04:06.194Z,3.38
2023-05-08T00:04:18.145Z,3.20
2023-05-08T00:04:29.567Z,3.05
2023-05-08T00:04:41.106Z,2.92
2023-05-08T00:04:52.582Z,3.00
2023-05-08T00:05:04.331Z,3.13
2023-05-08T00:05:15.984Z,3.20
2023-05-08T00:05:27.401Z,3.13
2023-05-08T00:05:41.542Z,2.97
2023-05-08T00:05:52.974Z,2.55
2023-05-08T00:06:05.475Z,2.60
2023-05-08T00:06:16.910Z,2.92
2023-05-08T00:06:28.286Z,2.92
2023-05-08T00:06:39.650Z,2.97
2023-05-08T00:06:51.153Z,2.67
2023-05-08T00:07:02.578Z,2.75
2023-05-08T00:07:13.920Z,2.70
2023-05-08T00:07:25.380Z,2.97
2023-05-08T00:07:37.571Z,2.80
2023-05-08T00:07:48.948Z,3.08
2023-05-08T00:08:00.314Z,2.90
2023-05-08T00:08:11.710Z,2.72
2023-05-08T00:08:23.270Z,2.63
2023-05-08T00:08:34.704Z,2.90
2023-05-08T00:08:46.337Z,2.80
2023-05-08T00:08:57.739Z,2.78
2023-05-08T00:09:09.177Z,2.90
2023-05-08T00:09:20.947Z,3.22
2023-05-08T00:09:32.333Z,3.15
2023-05-08T00:09:43.734Z,2.95
2023-05-08T00:09:55.185Z,2.60
2023-05-08T00:10:08.862Z,2.53
2023-05-08T00:10:20.344Z,2.88
2023-05-08T00:10:31.802Z,3.00
2023-05-08T00:10:43.229Z,3.03
2023-05-08T00:10:54.564Z,3.08
2023-05-08T00:11:05.979Z,2.85
2023-05-08T00:11:17.469Z,2.90
2023-05-08T00:11:29.058Z,2.95
2023-05-08T00:11:40.479Z,2.92
2023-05-08T00:11:51.923Z,2.70
2023-05-08T00:12:03.496Z,2.42
2023-05-08T00:12:14.904Z,2.42
2023-05-08T00:12:26.337Z,2.70
2023-05-08T00:12:37.958Z,2.80
2023-05-08T00:12:49.414Z,2.90
2023-05-08T00:13:00.954Z,2.88
2023-05-08T00:13:12.492Z,2.85
2023-05-08T00:13:24.333Z,2.70
2023-05-08T00:13:35.890Z,2.53
2023-05-08T00:13:47.800Z,2.83
2023-05-08T00:13:59.164Z,2.83
2023-05-08T00:14:10.564Z,2.88
2023-05-08T00:14:21.933Z,2.78
2023-05-08T00:14:33.486Z,2.78
2023-05-08T00:14:44.827Z,2.47
2023-05-08T00:14:56.684Z,2.45
2023-05-08T00:15:08.856Z,2.42
2023-05-08T00:15:20.281Z,2.60
2023-05-08T00:15:31.725Z,2.58
2023-05-08T00:15:43.239Z,2.50
2023-05-08T00:15:54.759Z,2.35
2023-05-08T00:16:06.315Z,2.40
2023-05-08T00:16:17.895Z,2.63
2023-05-08T00:16:29.504Z,2.80
2023-05-08T00:16:41.206Z,2.83
2023-05-08T00:16:52.909Z,2.75
2023-05-08T00:17:04.479Z,2.78
2023-05-08T00:17:15.896Z,2.92
2023-05-08T00:17:27.390Z,2.80
2023-05-08T00:17:38.861Z,2.90
2023-05-08T00:17:50.338Z,2.60
2023-05-08T00:18:01.731Z,2.63
2023-05-08T00:18:13.232Z,2.63
2023-05-08T00:18:24.642Z,3.00
2023-05-08T00:18:36.080Z,2.92
2023-05-08T00:18:47.567Z,3.00
2023-05-08T00:18:59.232Z,3.00
2023-05-08T00:19:10.633Z,3.00
2023-05-08T00:19:22.067Z,2.95
2023-05-08T00:19:33.863Z,3.08
2023-05-08T00:19:45.321Z,3.10
2023-05-08T00:19:56.786Z,3.13
2023-05-08T00:20:08.580Z,3.33
2023-05-08T00:20:20.037Z,3.30
2023-05-08T00:20:31.531Z,3.03
2023-05-08T00:20:42.971Z,2.90
2023-05-08T00:20:54.450Z,2.80
2023-05-08T00:21:06.656Z,2.88
2023-05-08T00:21:18.102Z,2.67
2023-05-08T00:21:30.172Z,2.83
2023-05-08T00:21:41.619Z,3.00
2023-05-08T00:21:53.019Z,3.10
2023-05-08T00:22:04.357Z,3.10
2023-05-08T00:22:15.774Z,3.00
2023-05-08T00:22:27.585Z,2.95
2023-05-08T00:22:39.061Z,2.92
2023-05-08T00:22:50.490Z,3.03
2023-05-08T00:23:01.909Z,3.05
2023-05-08T00:23:13.335Z,3.10
2023-05-08T00:23:24.722Z,2.85
2023-05-08T00:23:36.134Z,3.00
2023-05-08T00:23:47.580Z,2.88
2023-05-08T00:23:59.041Z,2.90
2023-05-08T00:24:10.501Z,3.10
2023-05-08T00:24:22.018Z,3.20
2023-05-08T00:24:34.415Z,3.10
2023-05-08T00:24:45.868Z,2.90
2023-05-08T00:24:57.297Z,2.80
2023-05-08T00:25:08.850Z,2.97
2023-05-08T00:25:20.279Z,3.22
2023-05-08T00:25:31.760Z,3.10
2023-05-08T00:25:43.146Z,3.25
2023-05-08T00:25:54.539Z,3.30
2023-05-08T00:26:05.956Z,3.38
2023-05-08T00:26:17.462Z,3.20
2023-05-08T00:26:28.908Z,3.58
2023-05-08T00:26:40.338Z,3.55
2023-05-08T00:26:51.778Z,3.67
2023-05-08T00:27:03.347Z,3.35
2023-05-08T00:27:14.705Z,3.25
2023-05-08T00:27:26.110Z,3.17
2023-05-08T00:27:37.606Z,3.30
2023-05-08T00:27:49.123Z,3.13
2023-05-08T00:28:00.863Z,3.05
2023-05-08T00:28:12.280Z,3.08
2023-05-08T00:28:23.700Z,3.30
2023-05-08T00:28:35.170Z,3.33
2023-05-08T00:28:46.569Z,3.17
2023-05-08T00:28:58.000Z,3.08
2023-05-08T00:29:09.510Z,3.30
2023-05-08T00:29:21.010Z,3.30
2023-05-08T00:29:32.397Z,3.28
2023-05-08T00:29:43.854Z,3.10
2023-05-08T00:29:55.287Z,3.13
2023-05-08T00:30:07.932Z,3.10
2023-05-08T00:30:20.585Z,2.83
2023-05-08T00:30:31.971Z,2.78
2023-05-08T00:30:43.483Z,2.78
2023-05-08T00:30:55.020Z,2.42
2023-05-08T00:31:06.462Z,2.28
2023-05-08T00:31:17.860Z,2.30
2023-05-08T00:31:29.337Z,2.35
2023-05-08T00:31:40.875Z,2.30
2023-05-08T00:31:52.401Z,2.40
2023-05-08T00:32:03.890Z,2.50
2023-05-08T00:32:15.519Z,2.63
2023-05-08T00:32:27.302Z,2.80
2023-05-08T00:32:38.930Z,2.60
2023-05-08T00:32:50.410Z,2.63
2023-05-08T00:33:01.903Z,2.70
2023-05-08T00:33:13.434Z,2.80
2023-05-08T00:33:24.948Z,2.63
2023-05-08T00:33:36.312Z,2.42
2023-05-08T00:33:47.650Z,2.22
2023-05-08T00:33:59.168Z,2.13
2023-05-08T00:34:10.544Z,2.15
2023-05-08T00:34:21.998Z,2.17
2023-05-08T00:34:33.682Z,2.20
2023-05-08T00:34:45.095Z,2.20
2023-05-08T00:34:56.480Z,2.25
2023-05-08T00:35:08.338Z,2.20
2023-05-08T00:35:19.892Z,2.13
2023-05-08T00:35:31.286Z,2.35
2023-05-08T00:35:42.692Z,2.33
2023-05-08T00:36:04.695Z,2.40
2023-05-08T00:36:16.186Z,2.10
2023-05-08T00:36:27.588Z,2.13
2023-05-08T00:36:39.005Z,2.22
2023-05-08T00:36:50.440Z,2.20
2023-05-08T00:37:02.004Z,2.10
2023-05-08T00:37:13.571Z,2.20
2023-05-08T00:37:24.945Z,2.15
2023-05-08T00:37:36.368Z,2.00
2023-05-08T00:37:47.806Z,2.05
2023-05-08T00:37:59.258Z,2.25
2023-05-08T00:38:10.735Z,2.38
2023-05-08T00:38:22.144Z,2.33
2023-05-08T00:38:34.718Z,2.25
2023-05-08T00:38:46.148Z,2.20
2023-05-08T00:38:57.612Z,2.00
2023-05-08T00:39:09.163Z,2.45
2023-05-08T00:39:20.568Z,2.50
2023-05-08T00:39:32.022Z,2.45
2023-05-08T00:39:43.379Z,2.10
2023-05-08T00:39:54.732Z,2.03
2023-05-08T00:40:10.487Z,2.13
2023-05-08T00:40:22.046Z,2.40
2023-05-08T00:40:33.492Z,2.38
2023-05-08T00:40:44.957Z,2.33
2023-05-08T00:40:56.356Z,2.15
2023-05-08T00:41:07.803Z,2.20
2023-05-08T00:41:19.260Z,2.28
2023-05-08T00:41:30.704Z,2.20
2023-05-08T00:41:42.071Z,2.20
2023-05-08T00:41:53.476Z,2.13
2023-05-08T00:42:04.888Z,2.10
2023-05-08T00:42:16.386Z,2.05
2023-05-08T00:42:27.774Z,1.88
2023-05-08T00:42:39.228Z,1.98
2023-05-08T00:42:50.682Z,2.10
2023-05-08T00:43:02.609Z,2.40
2023-05-08T00:43:14.046Z,2.42
2023-05-08T00:43:25.911Z,2.30
2023-05-08T00:43:37.339Z,2.10
2023-05-08T00:43:48.860Z,2.08
2023-05-08T00:44:00.285Z,2.10
2023-05-08T00:44:11.702Z,2.03
2023-05-08T00:44:23.109Z,2.08
2023-05-08T00:44:34.535Z,2.20
2023-05-08T00:44:48.484Z,2.30
2023-05-08T00:44:59.855Z,2.20
2023-05-08T00:45:11.721Z,2.20
2023-05-08T00:45:23.308Z,2.28
2023-05-08T00:45:37.844Z,2.30
2023-05-08T00:45:49.318Z,2.03
2023-05-08T00:46:01.756Z,2.08
2023-05-08T00:46:13.851Z,2.25
2023-05-08T00:46:25.712Z,2.30
2023-05-08T00:46:37.356Z,2.17
2023-05-08T00:46:49.125Z,2.08
2023-05-08T00:47:00.689Z,1.90
2023-05-08T00:47:12.206Z,1.85
2023-05-08T00:47:23.778Z,2.03
2023-05-08T00:47:35.505Z,1.85
2023-05-08T00:47:47.073Z,1.80
2023-05-08T00:47:59.411Z,2.17
2023-05-08T00:48:10.899Z,2.20
2023-05-08T00:48:24.379Z,1.90
2023-05-08T00:48:36.350Z,1.90
2023-05-08T00:48:47.794Z,1.90
2023-05-08T00:48:59.705Z,1.90
2023-05-08T00:49:12.581Z,1.92
2023-05-08T00:49:25.070Z,2.13
2023-05-08T00:49:36.724Z,2.17
2023-05-08T00:49:48.729Z,2.10
2023-05-08T00:50:01.048Z,1.90
2023-05-08T00:50:12.771Z,1.90
2023-05-08T00:50:24.493Z,1.98
2023-05-08T00:50:36.463Z,2.10
2023-05-08T00:50:48.537Z,2.13
2023-05-08T00:51:02.354Z,2.10
2023-05-08T00:51:15.174Z,1.92
2023-05-08T00:51:27.970Z,2.00
2023-05-08T00:51:40.804Z,2.00
2023-05-08T00:51:55.572Z,1.90
2023-05-08T00:52:07.073Z,2.22
2023-05-08T00:52:19.279Z,2.42
2023-05-08T00:52:32.699Z,2.45
2023-05-08T00:52:44.130Z,2.50
2023-05-08T00:52:57.507Z,2.60
2023-05-08T00:53:09.087Z,2.40
2023-05-08T00:53:22.587Z,2.30
2023-05-08T00:53:39.060Z,2.50
2023-05-08T00:53:50.650Z,2.63
2023-05-08T00:54:02.358Z,2.50
2023-05-08T00:54:14.425Z,2.47
2023-05-08T00:54:26.530Z,2.55
2023-05-08T00:54:38.600Z,2.70
2023-05-08T00:54:50.113Z,2.50
2023-05-08T00:55:02.668Z,2.47
2023-05-08T00:55:14.252Z,2.75
2023-05-08T00:55:25.831Z,3.00
2023-05-08T00:55:38.277Z,2.88
2023-05-08T00:55:51.248Z,2.83
2023-05-08T00:56:03.008Z,2.60
2023-05-08T00:56:16.330Z,2.55
2023-05-08T00:56:29.442Z,2.83
2023-05-08T00:56:41.096Z,3.13
2023-05-08T00:56:52.682Z,3.17
2023-05-08T00:57:06.752Z,3.00
2023-05-08T00:57:18.846Z,2.83
2023-05-08T00:57:32.947Z,2.70
2023-05-08T00:57:47.423Z,2.83
2023-05-08T00:57:59.179Z,2.92
2023-05-08T00:58:12.129Z,3.08
2023-05-08T00:58:26.102Z,2.88
2023-05-08T00:58:37.770Z,2.53
2023-05-08T00:58:49.776Z,2.67
2023-05-08T00:59:01.480Z,2.70
2023-05-08T00:59:14.571Z,2.80
2023-05-08T00:59:26.144Z,2.88
2023-05-08T00:59:39.549Z,3.15
2023-05-08T00:59:53.026Z,3.00
2023-05-08T01:00:05.286Z,2.85
2023-05-08T01:00:18.303Z,2.92
2023-05-08T01:00:31.009Z,2.97
2023-05-08T01:00:44.283Z,2.80
2023-05-08T01:00:56.765Z,2.90
2023-05-08T01:01:08.444Z,2.92
2023-05-08T01:01:19.998Z,2.78
2023-05-08T01:01:34.669Z,2.95
2023-05-08T01:01:46.515Z,2.85
2023-05-08T01:01:58.063Z,2.80
2023-05-08T01:02:09.834Z,2.80
2023-05-08T01:02:21.433Z,2.90
2023-05-08T01:02:33.992Z,2.53
2023-05-08T01:02:46.566Z,2.60
2023-05-08T01:03:00.747Z,2.85
2023-05-08T01:03:13.554Z,3.13
2023-05-08T01:03:25.565Z,2.85
2023-05-08T01:03:38.344Z,2.70
2023-05-08T01:03:50.248Z,3.00
2023-05-08T01:04:03.314Z,3.08
2023-05-08T01:04:15.037Z,2.97
2023-05-08T01:04:26.672Z,3.03
2023-05-08T01:04:39.148Z,3.00
2023-05-08T01:04:52.158Z,2.97
2023-05-08T01:05:03.793Z,3.00
2023-05-08T01:05:15.325Z,3.17
2023-05-08T01:05:30.138Z,3.40
2023-05-08T01:05:41.804Z,3.20
2023-05-08T01:05:54.369Z,3.08
2023-05-08T01:06:07.406Z,3.30
2023-05-08T01:06:18.748Z,3.45
2023-05-08T01:06:30.291Z,3.25
2023-05-08T01:06:41.845Z,3.17
2023-05-08T01:06:53.406Z,3.15
2023-05-08T01:07:04.972Z,3.15
2023-05-08T01:07:17.723Z,3.30
2023-05-08T01:07:29.348Z,3.22
2023-05-08T01:07:41.016Z,3.33
2023-05-08T01:07:52.450Z,3.40
2023-05-08T01:08:03.915Z,3.20
2023-05-08T01:08:15.494Z,3.13
2023-05-08T01:08:26.955Z,3.38
2023-05-08T01:08:38.772Z,3.53
2023-05-08T01:08:50.234Z,3.30
2023-05-08T01:09:01.916Z,2.80
2023-05-08T01:09:13.329Z,2.72
2023-05-08T01:09:24.788Z,3.00
2023-05-08T01:09:36.306Z,3.47
2023-05-08T01:09:48.353Z,3.78
2023-05-08T01:09:59.829Z,3.80
2023-05-08T01:10:11.409Z,3.50
2023-05-08T01:10:23.109Z,3.33
2023-05-08T01:11:19.406Z,3.45
2023-05-08T01:11:37.373Z,3.60
2023-05-08T01:12:03.925Z,3.33
2023-05-08T01:12:34.574Z,3.35
2023-05-08T01:13:04.100Z,3.80
2023-05-08T01:13:27.069Z,4.30
2023-05-08T01:14:07.416Z,3.72
2023-05-08T01:14:24.626Z,3.65
2023-05-08T01:14:44.490Z,3.60
2023-05-08T01:15:00.530Z,3.90
2023-05-08T01:15:18.775Z,3.70
2023-05-08T01:15:47.371Z,3.70
2023-05-08T01:16:10.278Z,3.90
2023-05-08T01:16:27.975Z,3.50
2023-05-08T01:16:58.599Z,3.75
2023-05-08T01:17:32.640Z,3.70
2023-05-08T01:18:11.974Z,3.90
2023-05-08T01:18:33.133Z,4.18
2023-05-08T01:18:52.962Z,4.00
2023-05-08T01:19:33.413Z,4.00
2023-05-08T01:20:17.145Z,4.00
2023-05-08T01:20:56.490Z,4.55
2023-05-08T01:21:21.986Z,4.35
2023-05-08T01:21:51.124Z,4.97
2023-05-08T01:22:27.925Z,5.13
2023-05-08T01:23:11.017Z,4.28
2023-05-08T01:24:03.956Z,5.97
2023-05-08T01:24:33.719Z,4.90
2023-05-08T01:25:17.626Z,5.72
2023-05-08T01:25:37.643Z,4.88
2023-05-08T01:25:55.047Z,4.93
2023-05-08T01:26:43.895Z,5.30
2023-05-08T01:27:16.361Z,5.20
2023-05-08T01:27:30.791Z,5.22
2023-05-08T01:28:08.123Z,4.97
2023-05-08T01:28:56.445Z,5.22
2023-05-08T01:29:29.044Z,5.10
2023-05-08T01:30:07.877Z,4.97
2023-05-08T01:30:46.568Z,5.90
2023-05-08T01:31:41.348Z,4.95
2023-05-08T01:32:06.149Z,5.68
2023-05-08T01:32:24.879Z,5.65
2023-05-08T01:32:42.124Z,5.78
2023-05-08T01:33:07.921Z,5.45
2023-05-08T01:33:50.059Z,6.25
2023-05-08T01:34:22.910Z,5.60
2023-05-08T01:34:39.781Z,6.43
2023-05-08T01:35:00.576Z,6.18
2023-05-08T01:35:27.293Z,5.72
2023-05-08T01:35:52.992Z,5.68
2023-05-08T01:36:20.770Z,5.93
2023-05-08T01:37:00.667Z,5.85
2023-05-08T01:37:17.055Z,4.72
2023-05-08T01:37:51.850Z,5.20
2023-05-08T01:38:03.225Z,5.28
2023-05-08T01:38:40.120Z,5.30
2023-05-08T01:39:03.389Z,4.82
2023-05-08T01:39:22.367Z,4.82
2023-05-08T01:39:36.864Z,4.90
2023-05-08T01:40:00.355Z,5.15
2023-05-08T01:40:30.537Z,5.25
2023-05-08T01:41:05.242Z,4.70
2023-05-08T01:41:23.307Z,5.97
2023-05-08T01:41:38.376Z,4.75
2023-05-08T01:42:22.705Z,4.28
2023-05-08T01:43:00.116Z,4.05
2023-05-08T01:43:35.540Z,4.10
2023-05-08T01:44:13.460Z,3.90
2023-05-08T01:44:32.547Z,3.90
2023-05-08T01:44:49.132Z,4.00
2023-05-08T01:45:05.284Z,3.80
2023-05-08T01:45:22.289Z,3.53
2023-05-08T01:45:40.677Z,3.83
2023-05-08T01:45:54.304Z,4.20
2023-05-08T01:46:12.498Z,3.95
2023-05-08T01:46:27.057Z,3.67
2023-05-08T01:46:38.689Z,3.78
2023-05-08T01:46:51.266Z,3.83
2023-05-08T01:47:07.154Z,4.15
2023-05-08T01:47:20.580Z,4.25
2023-05-08T01:47:37.001Z,4.10
2023-05-08T01:48:02.372Z,3.88
2023-05-08T01:48:22.593Z,3.60
2023-05-08T01:48:39.141Z,3.38
2023-05-08T01:48:59.113Z,3.65
2023-05-08T01:49:17.305Z,3.50
2023-05-08T01:49:36.984Z,3.30
2023-05-08T01:49:56.034Z,3.22
2023-05-08T01:50:25.620Z,3.65
2023-05-08T01:50:44.779Z,3.88
2023-05-08T01:51:04.665Z,3.85
2023-05-08T01:51:23.057Z,3.28
2023-05-08T01:51:43.350Z,3.35
2023-05-08T01:52:05.664Z,3.80
2023-05-08T01:52:22.372Z,3.88
2023-05-08T01:52:41.906Z,3.88
2023-05-08T01:52:58.723Z,3.90
2023-05-08T01:53:26.804Z,3.83
2023-05-08T01:53:42.982Z,3.97
2023-05-08T01:54:00.680Z,3.97
2023-05-08T01:54:16.240Z,3.80
2023-05-08T01:54:33.760Z,3.65
2023-05-08T01:54:59.304Z,3.78
2023-05-08T01:55:16.141Z,3.65
2023-05-08T01:55:34.012Z,3.80
2023-05-08T01:55:48.498Z,3.63
2023-05-08T01:56:03.718Z,3.50
2023-05-08T01:56:20.385Z,3.80
2023-05-08T01:56:32.889Z,4.00
2023-05-08T01:56:47.792Z,3.92
2023-05-08T01:57:01.568Z,4.25
2023-05-08T01:57:14.858Z,4.53
2023-05-08T01:57:29.029Z,4.18
2023-05-08T01:57:47.290Z,3.60
2023-05-08T01:57:59.595Z,4.00
2023-05-08T01:58:12.614Z,4.22
2023-05-08T01:58:25.866Z,4.10
2023-05-08T01:58:37.933Z,4.10
2023-05-08T01:58:54.162Z,3.65
2023-05-08T01:59:07.646Z,3.60
2023-05-08T01:59:21.955Z,4.05
2023-05-08T01:59:35.676Z,4.65
2023-05-08T01:59:49.664Z,4.50
2023-05-08T02:00:02.534Z,3.72
2023-05-08T02:00:16.488Z,3.80
2023-05-08T02:00:28.153Z,4.00
2023-05-08T02:00:41.336Z,4.10
2023-05-08T02:00:53.748Z,4.20
2023-05-08T02:01:06.036Z,4.50
2023-05-08T02:01:20.756Z,4.13
2023-05-08T02:01:33.951Z,3.85
2023-05-08T02:01:47.995Z,3.90
2023-05-08T02:02:02.445Z,4.10
2023-05-08T02:02:14.989Z,4.13
2023-05-08T02:02:29.993Z,3.83
2023-05-08T02:02:42.586Z,3.67
2023-05-08T02:02:56.039Z,3.95
2023-05-08T02:03:09.351Z,4.03
2023-05-08T02:03:23.469Z,3.90
2023-05-08T02:03:35.166Z,4.15
2023-05-08T02:03:47.259Z,4.03
2023-05-08T02:04:00.836Z,4.03
2023-05-08T02:04:14.683Z,4.13
2023-05-08T02:04:27.949Z,4.03
2023-05-08T02:04:42.522Z,4.00
2023-05-08T02:04:54.744Z,4.00
2023-05-08T02:05:08.168Z,4.18
2023-05-08T02:05:22.455Z,4.03
2023-05-08T02:05:37.260Z,4.55
2023-05-08T02:05:51.541Z,4.68
2023-05-08T02:06:04.542Z,4.50
2023-05-08T02:06:21.268Z,4.80
2023-05-08T02:06:33.931Z,4.40
2023-05-08T02:06:45.596Z,3.90
2023-05-08T02:06:58.742Z,3.88
2023-05-08T02:07:10.180Z,4.32
2023-05-08T02:07:25.826Z,4.93
2023-05-08T02:07:37.365Z,5.05
2023-05-08T02:07:50.288Z,5.13
2023-05-08T02:08:03.263Z,4.93
2023-05-08T02:08:15.592Z,5.13
2023-05-08T02:08:29.306Z,5.10
2023-05-08T02:08:42.067Z,5.18
2023-05-08T02:08:55.119Z,5.15
2023-05-08T02:09:09.505Z,5.10
2023-05-08T02:09:23.858Z,5.30
2023-05-08T02:09:36.785Z,5.30
2023-05-08T02:09:48.958Z,5.30
2023-05-08T02:10:02.145Z,5.28
2023-05-08T02:10:15.281Z,4.80
2023-05-08T02:10:29.503Z,5.07
2023-05-08T02:10:43.223Z,5.15
2023-05-08T02:10:56.319Z,5.20
2023-05-08T02:11:08.924Z,5.35
2023-05-08T02:11:21.960Z,5.30
2023-05-08T02:11:35.360Z,5.15
2023-05-08T02:11:49.034Z,4.95
2023-05-08T02:12:02.101Z,5.25
2023-05-08T02:12:16.392Z,5.47
2023-05-08T02:12:28.502Z,5.43
2023-05-08T02:12:41.946Z,5.40
2023-05-08T02:12:55.352Z,5.28
2023-05-08T02:13:09.983Z,5.57
2023-05-08T02:13:22.302Z,5.40
2023-05-08T02:13:35.568Z,5.00
2023-05-08T02:13:48.530Z,4.95
2023-05-08T02:14:01.903Z,5.32
2023-05-08T02:14:14.552Z,5.40
2023-05-08T02:14:27.934Z,5.20
2023-05-08T02:14:41.352Z,5.18
2023-05-08T02:14:53.768Z,5.22
2023-05-08T02:15:07.218Z,5.05
2023-05-08T02:15:19.946Z,5.05
2023-05-08T02:15:33.324Z,5.30
2023-05-08T02:15:47.438Z,5.60
2023-05-08T02:16:01.214Z,5.45
2023-05-08T02:16:13.872Z,5.45
2023-05-08T02:16:26.865Z,5.45
2023-05-08T02:16:42.039Z,5.30
2023-05-08T02:16:55.662Z,5.20
2023-05-08T02:17:09.713Z,5.03
2023-05-08T02:17:21.826Z,5.18
2023-05-08T02:17:34.876Z,5.60
2023-05-08T02:17:49.430Z,5.72
2023-05-08T02:18:02.325Z,5.65
2023-05-08T02:18:15.893Z,5.72
2023-05-08T02:18:29.998Z,5.63
2023-05-08T02:18:46.921Z,5.47
2023-05-08T02:19:01.740Z,5.25
2023-05-08T02:19:16.174Z,5.18
2023-05-08T02:19:30.123Z,5.45
2023-05-08T02:19:44.222Z,5.32
2023-05-08T02:19:59.007Z,5.30
2023-05-08T02:20:11.965Z,5.40
2023-05-08T02:20:23.590Z,5.30
2023-05-08T02:20:36.372Z,4.90
2023-05-08T02:20:52.043Z,5.05
2023-05-08T02:21:06.096Z,5.18
2023-05-08T02:21:18.939Z,5.22
2023-05-08T02:21:31.421Z,5.32
2023-05-08T02:21:45.463Z,4.97
2023-05-08T02:21:59.944Z,4.55
2023-05-08T02:22:13.475Z,4.65
2023-05-08T02:22:26.172Z,5.00
2023-05-08T02:22:38.053Z,5.45
2023-05-08T02:22:51.586Z,5.28
2023-05-08T02:23:03.568Z,4.95
2023-05-08T02:23:16.524Z,4.90
2023-05-08T02:23:28.997Z,5.20
2023-05-08T02:23:42.955Z,5.00
2023-05-08T02:23:58.848Z,5.13
2023-05-08T02:24:11.589Z,5.35
2023-05-08T02:24:24.812Z,5.00
2023-05-08T02:24:38.161Z,4.93
2023-05-08T02:24:51.309Z,5.15
2023-05-08T02:25:03.795Z,5.10
2023-05-08T02:25:16.022Z,5.13
2023-05-08T02:25:30.145Z,5.10
2023-05-08T02:25:43.543Z,5.03
2023-05-08T02:25:56.384Z,4.63
2023-05-08T02:26:09.582Z,4.60
2023-05-08T02:26:22.171Z,4.68
2023-05-08T02:26:35.380Z,4.88
2023-05-08T02:26:48.790Z,5.22
2023-05-08T02:27:00.588Z,5.75
2023-05-08T02:27:13.008Z,5.45
2023-05-08T02:27:29.375Z,4.65
2023-05-08T02:27:47.476Z,4.82
2023-05-08T02:27:59.337Z,4.43
2023-05-08T02:28:11.357Z,4.18
2023-05-08T02:28:24.503Z,4.18
2023-05-08T02:28:36.614Z,4.57
2023-05-08T02:28:49.531Z,4.50
2023-05-08T02:29:03.299Z,4.35
2023-05-08T02:29:15.910Z,4.50
2023-05-08T02:29:29.265Z,4.63
2023-05-08T02:29:41.233Z,4.90
2023-05-08T02:29:54.611Z,5.18
2023-05-08T02:30:07.076Z,5.25
2023-05-08T02:30:19.884Z,5.38
2023-05-08T02:30:32.144Z,5.40
2023-05-08T02:30:45.526Z,5.32
2023-05-08T02:30:58.556Z,5.25
2023-05-08T02:31:11.897Z,5.38
2023-05-08T02:31:24.691Z,5.30
2023-05-08T02:31:37.286Z,5.20
2023-05-08T02:31:50.320Z,5.15
2023-05-08T02:32:03.532Z,5.35
2023-05-08T02:32:16.885Z,5.68
2023-05-08T02:32:30.890Z,5.45
2023-05-08T02:32:43.942Z,5.40
2023-05-08T02:33:00.609Z,5.18
2023-05-08T02:33:14.350Z,5.07
2023-05-08T02:33:27.756Z,4.95
2023-05-08T02:33:42.419Z,4.97
2023-05-08T02:33:54.161Z,5.10
2023-05-08T02:34:08.154Z,4.93
2023-05-08T02:34:21.304Z,4.70
2023-05-08T02:34:33.017Z,4.57
2023-05-08T02:34:54.996Z,4.82
2023-05-08T02:35:16.260Z,5.22
2023-05-08T02:35:30.747Z,5.28
2023-05-08T02:35:44.201Z,5.60
2023-05-08T02:35:57.406Z,5.80
2023-05-08T02:36:10.835Z,5.55
2023-05-08T02:36:23.414Z,5.13
2023-05-08T02:36:37.373Z,5.03
2023-05-08T02:36:54.550Z,4.90
2023-05-08T02:37:06.189Z,4.95
2023-05-08T02:37:19.675Z,4.63
2023-05-08T02:37:31.978Z,4.57
2023-05-08T02:37:46.619Z,4.60
2023-05-08T02:37:58.621Z,4.80
2023-05-08T02:38:11.941Z,5.13
2023-05-08T02:38:25.482Z,4.97
2023-05-08T02:38:39.608Z,4.97
2023-05-08T02:38:54.191Z,4.60
2023-05-08T02:39:06.530Z,4.38
2023-05-08T02:39:20.219Z,4.45
2023-05-08T02:39:35.490Z,4.53
2023-05-08T02:39:48.042Z,4.38
2023-05-08T02:40:01.495Z,4.47
2023-05-08T02:40:15.113Z,4.70
2023-05-08T02:40:29.480Z,4.60
2023-05-08T02:40:53.132Z,4.22
2023-05-08T02:41:06.113Z,4.57
2023-05-08T02:41:20.319Z,4.72
2023-05-08T02:41:33.944Z,4.65
2023-05-08T02:41:46.027Z,4.65
2023-05-08T02:41:57.927Z,4.70
2023-05-08T02:42:09.951Z,4.38
2023-05-08T02:42:21.336Z,4.70
2023-05-08T02:42:32.870Z,4.82
2023-05-08T02:42:45.053Z,5.07
2023-05-08T02:42:56.845Z,4.85
2023-05-08T02:43:08.371Z,4.38
2023-05-08T02:43:19.917Z,3.95
2023-05-08T02:43:31.620Z,3.92
2023-05-08T02:43:43.138Z,4.43
2023-05-08T02:43:55.025Z,4.68
2023-05-08T02:44:06.679Z,4.85
2023-05-08T02:44:18.572Z,4.50
2023-05-08T02:44:30.384Z,4.55
2023-05-08T02:44:41.834Z,4.30
2023-05-08T02:44:53.306Z,4.35
2023-05-08T02:45:05.375Z,4.32
2023-05-08T02:45:16.844Z,4.78
2023-05-08T02:45:36.114Z,4.40
2023-05-08T02:46:02.524Z,3.65
2023-05-08T02:46:17.320Z,4.40
2023-05-08T02:46:40.476Z,4.57
2023-05-08T02:47:06.911Z,4.22
2023-05-08T02:47:26.320Z,3.92
2023-05-08T02:47:54.671Z,3.72
2023-05-08T02:48:13.224Z,3.78
2023-05-08T02:48:38.963Z,4.20
2023-05-08T02:49:02.011Z,3.97
2023-05-08T02:49:27.683Z,3.90
2023-05-08T02:50:02.796Z,3.65
2023-05-08T02:50:43.050Z,3.70
2023-05-08T02:51:03.216Z,3.38
2023-05-08T02:51:26.010Z,3.47
2023-05-08T02:51:43.109Z,3.78
2023-05-08T02:52:22.872Z,3.80
2023-05-08T02:52:42.980Z,3.70
2023-05-08T02:53:03.169Z,3.47
2023-05-08T02:53:20.521Z,3.67
2023-05-08T02:53:37.337Z,3.67
2023-05-08T02:53:58.466Z,3.40
2023-05-08T02:54:31.934Z,3.60
2023-05-08T02:55:03.575Z,3.55
2023-05-08T02:55:50.628Z,3.55
2023-05-08T02:56:11.554Z,3.42
2023-05-08T02:56:43.986Z,2.97
2023-05-08T02:57:03.585Z,3.53
2023-05-08T02:57:22.969Z,3.53
2023-05-08T02:58:05.107Z,3.90
2023-05-08T02:58:22.310Z,3.05
2023-05-08T02:59:04.256Z,3.20
2023-05-08T02:59:51.547Z,3.13
2023-05-08T03:00:07.894Z,3.22
2023-05-08T03:00:28.896Z,3.13
2023-05-08T03:01:05.487Z,3.28
2023-05-08T03:01:25.883Z,3.25
2023-05-08T03:02:06.749Z,3.42
2023-05-08T03:02:28.485Z,3.20
2023-05-08T03:02:49.873Z,2.80
2023-05-08T03:03:09.158Z,3.00
2023-05-08T03:03:28.894Z,3.00
2023-05-08T03:03:45.889Z,3.22
2023-05-08T03:04:10.794Z,3.10
2023-05-08T03:04:36.155Z,2.78
2023-05-08T03:04:55.234Z,2.83
2023-05-08T03:05:34.723Z,3.20
2023-05-08T03:05:56.326Z,2.47
2023-05-08T03:06:16.792Z,2.90
2023-05-08T03:06:33.907Z,2.80
2023-05-08T03:06:48.085Z,2.85
2023-05-08T03:07:00.258Z,3.13
2023-05-08T03:07:12.750Z,3.03
2023-05-08T03:07:28.574Z,2.80
2023-05-08T03:07:42.501Z,2.60
2023-05-08T03:07:58.651Z,2.80
2023-05-08T03:08:20.668Z,2.67
2023-05-08T03:08:35.175Z,2.60
2023-05-08T03:08:48.665Z,2.45
2023-05-08T03:09:02.381Z,2.38
2023-05-08T03:09:21.538Z,2.33
2023-05-08T03:09:41.594Z,2.13
2023-05-08T03:09:59.038Z,2.50
2023-05-08T03:10:12.842Z,2.55
2023-05-08T03:10:31.760Z,2.67
2023-05-08T03:10:45.305Z,2.53
2023-05-08T03:11:01.111Z,2.60
2023-05-08T03:11:18.056Z,2.58
2023-05-08T03:11:43.657Z,2.47
2023-05-08T03:12:03.703Z,2.28
2023-05-08T03:12:20.618Z,2.63
2023-05-08T03:12:35.404Z,2.78
2023-05-08T03:12:49.919Z,2.67
2023-05-08T03:13:05.895Z,2.63
2023-05-08T03:13:19.385Z,2.78
2023-05-08T03:13:34.394Z,2.80
2023-05-08T03:13:48.005Z,2.67
2023-05-08T03:14:02.550Z,2.85
2023-05-08T03:14:19.728Z,2.97
2023-05-08T03:14:35.174Z,2.92
2023-05-08T03:15:03.283Z,2.85
2023-05-08T03:15:33.994Z,2.85
2023-05-08T03:15:47.052Z,2.38
2023-05-08T03:16:04.324Z,2.20
2023-05-08T03:16:22.942Z,2.10
2023-05-08T03:16:36.797Z,2.55
2023-05-08T03:16:52.101Z,2.70
2023-05-08T03:17:07.472Z,2.65
2023-05-08T03:17:21.275Z,2.58
2023-05-08T03:17:34.949Z,2.40
2023-05-08T03:17:49.881Z,2.50
2023-05-08T03:18:08.817Z,2.65
2023-05-08T03:18:23.450Z,2.53
2023-05-08T03:19:00.868Z,2.60
2023-05-08T03:19:23.237Z,2.80
2023-05-08T03:19:38.036Z,2.95
2023-05-08T03:19:55.115Z,2.80
2023-05-08T03:20:09.594Z,2.92
2023-05-08T03:20:22.851Z,3.00
2023-05-08T03:20:39.103Z,3.10
2023-05-08T03:20:54.514Z,3.00
2023-05-08T03:21:08.157Z,3.10
2023-05-08T03:21:21.286Z,3.10
2023-05-08T03:21:33.251Z,3.03
2023-05-08T03:21:47.073Z,3.08
2023-05-08T03:22:00.119Z,3.10
2023-05-08T03:22:13.327Z,2.75
2023-05-08T03:22:28.427Z,2.90
2023-05-08T03:22:42.307Z,2.95
2023-05-08T03:22:55.850Z,3.00
2023-05-08T03:23:10.408Z,3.25
2023-05-08T03:23:24.790Z,3.00
2023-05-08T03:23:38.836Z,2.90
2023-05-08T03:23:53.984Z,3.10
2023-05-08T03:24:07.363Z,3.28
2023-05-08T03:24:20.565Z,3.47